Live aus Altenrhein
LIVE
LSZR 250620Z 25006KT 200V290 9999 BKN047 BKN060 15/10 Q1012 NOSIG RMK C

People´s Info Center:

Öffnungszeiten Mo-Fr, 8-18 Uhr

 

info@peoples.ch

 
Aus Österreich:

T: +43 (0)5572 203 610

 

Aus CH / LI / DE:

T: +41 (0)71 858 51 60

 

Barrierefrei fliegen

Rundum versorgt bei People's.

 

Kostenloser Rollstuhltransport

Passagiere die keine langen Strecken oder  nicht gehen können, haben die Möglichkeit einen Rollstuhlservice in Anspruch zu nehmen. Ihren Rollstuhl transportieren wir für Sie natürlich kostenfrei. Melden Sie sich hierfür nach Ihrer Buchung bitte bei unserem Info Center an. 

 

Kostenlose Zusatzservices

Sollten Sie und Ihre Begleitperson zusätzliche Hilfe beim Check-In oder Boarding benötigen, sind wir Ihnen gerne behilflich. Bitte melden Sie sich hierfür bei unserem Info Center.

 

Vorab an Bord

Selbstverständlich können Fluggäste mit Behinderungen bei People's Viennaline zuerst an Bord gehen. Melden Sie sich hierfür nach Ihrer Buchung bitte bei unserem Info Center an.